Time;durP1;ratioP1;P1;durP2;ratioP2;P2;SDS_P1;SDS_P2;PMS_P1;PMS_P2;Temp;Humidity;BMP_temperature;BMP_pressure;BME280_temperature;BME280_humidity;BME280_pressure;Samples;Min_cycle;Max_cycle;Signal;HPM_P1;HPM_P2
2021/09/18 00:00:23;;;;;;;;;;;;;;;10.71;78.33;96477.19;5076731;28;19975;-85
2021/09/18 00:02:48;;;;;;;;;;;;;;;10.72;78.57;96478.78;5076381;28;19957;-85
2021/09/18 00:05:14;;;;;;;;;;;;;;;10.68;79.17;96475.78;5076586;28;20373;-85
2021/09/18 00:07:40;;;;;;;;;;;;;;;10.66;78.55;96485.69;5076143;28;20444;-85
2021/09/18 00:10:06;;;;;;;;;;;;;;;10.63;78.35;96483.50;5076563;28;19964;-85
2021/09/18 00:12:32;;;;;;;;;;;;;;;10.61;79.05;96487.38;5076257;28;19960;-85
2021/09/18 00:14:58;;;;;;;;;;;;;;;10.58;79.10;96485.97;5058377;28;20334;-84
2021/09/18 00:17:26;;;;;;;;;;;;;;;10.56;79.15;96488.81;5076195;28;19956;-85
2021/09/18 00:19:52;;;;;;;;;;;;;;;10.55;79.39;96484.56;5075978;28;19974;-85
2021/09/18 00:22:18;;;;;;;;;;;;;;;10.54;79.20;96483.00;5075945;28;19968;-85
2021/09/18 00:24:44;;;;;;;;;;;;;;;10.53;78.96;96478.75;5075481;28;19969;-85
2021/09/18 00:27:10;;;;;;;;;;;;;;;10.53;78.67;96480.56;5076373;28;19958;-85
2021/09/18 00:29:36;;;;;;;;;;;;;;;10.54;78.88;96477.75;5075840;28;19962;-85
2021/09/18 00:32:03;;;;;;;;;;;;;;;10.55;79.26;96481.16;5075021;28;19954;-85
2021/09/18 00:34:29;;;;;;;;;;;;;;;10.53;79.41;96478.75;5075802;28;19997;-85
2021/09/18 00:36:55;;;;;;;;;;;;;;;10.52;79.62;96471.09;5075821;28;19963;-85
2021/09/18 00:39:20;;;;;;;;;;;;;;;10.50;79.41;96475.78;5074344;28;19987;-85
2021/09/18 00:41:46;;;;;;;;;;;;;;;10.48;79.25;96478.59;5076256;28;19981;-85
2021/09/18 00:44:17;;;;;;;;;;;;;;;10.46;79.20;96472.78;5075814;28;19961;-85
2021/09/18 00:46:46;;;;;;;;;;;;;;;10.45;78.92;96473.78;5075539;28;20431;-85
2021/09/18 00:49:12;;;;;;;;;;;;;;;10.44;79.38;96474.81;5074106;28;19954;-85
2021/09/18 00:51:39;;;;;;;;;;;;;;;10.42;79.58;96471.59;5075584;28;20006;-85
2021/09/18 00:54:06;;;;;;;;;;;;;;;10.40;79.31;96472.84;5075726;28;20299;-85
2021/09/18 00:56:32;;;;;;;;;;;;;;;10.38;78.97;96467.00;5061390;28;19958;-85
2021/09/18 00:58:57;;;;;;;;;;;;;;;10.38;79.28;96467.00;5074390;28;20451;-85
2021/09/18 01:01:23;;;;;;;;;;;;;;;10.33;79.82;96470.25;5075210;28;19976;-85
2021/09/18 01:03:59;;;;;;;;;;;;;;;10.31;79.69;96472.28;5075405;28;20401;-85
2021/09/18 01:06:25;;;;;;;;;;;;;;;10.28;79.43;96465.63;5074953;28;19966;-85
2021/09/18 01:08:53;;;;;;;;;;;;;;;10.27;79.62;96469.28;5073789;28;19968;-85
2021/09/18 01:11:19;;;;;;;;;;;;;;;10.26;79.19;96470.28;5075176;28;19952;-85
2021/09/18 01:13:45;;;;;;;;;;;;;;;10.25;79.45;96473.94;5075225;28;20071;-85
2021/09/18 01:16:10;;;;;;;;;;;;;;;10.24;79.25;96467.09;5075124;28;19950;-85
2021/09/18 01:18:36;;;;;;;;;;;;;;;10.23;79.77;96470.72;5074755;28;19955;-85
2021/09/18 01:21:02;;;;;;;;;;;;;;;10.21;79.71;96464.91;5074817;28;19973;-85
2021/09/18 01:23:28;;;;;;;;;;;;;;;10.21;79.60;96477.22;5074875;28;19959;-85
2021/09/18 01:25:54;;;;;;;;;;;;;;;10.20;79.18;96472.97;5074726;28;20313;-85
2021/09/18 01:28:23;;;;;;;;;;;;;;;10.19;79.28;96474.00;5074740;28;19954;-85
2021/09/18 01:30:50;;;;;;;;;;;;;;;10.18;79.25;96467.13;5073293;28;20340;-85
2021/09/18 01:33:16;;;;;;;;;;;;;;;10.16;79.16;96462.94;5074335;28;19952;-85
2021/09/18 01:35:42;;;;;;;;;;;;;;;10.14;80.08;96462.34;5073487;28;20521;-85
2021/09/18 01:38:08;;;;;;;;;;;;;;;10.11;80.13;96460.13;5074490;28;19993;-85
2021/09/18 01:40:38;;;;;;;;;;;;;;;10.09;79.73;96462.16;5074596;28;19978;-85
2021/09/18 01:43:05;;;;;;;;;;;;;;;10.08;79.30;96467.59;5074500;28;19957;-85
2021/09/18 01:45:31;;;;;;;;;;;;;;;10.07;79.23;96464.19;5074541;28;19948;-85
2021/09/18 01:47:58;;;;;;;;;;;;;;;10.07;79.31;96471.25;5074324;28;19949;-85
2021/09/18 01:50:33;;;;;;;;;;;;;;;10.06;78.96;96464.44;5074348;28;19969;-85
2021/09/18 01:53:03;;;;;;;;;;;;;;;10.03;79.70;96468.25;5074522;28;19962;-85
2021/09/18 01:55:33;;;;;;;;;;;;;;;10.00;80.02;96466.06;5072984;28;19961;-85
2021/09/18 01:58:00;;;;;;;;;;;;;;;9.97;79.58;96469.09;5074636;28;19954;-85
2021/09/18 02:00:26;;;;;;;;;;;;;;;9.95;79.22;96474.59;5074080;28;19985;-85
2021/09/18 02:02:52;;;;;;;;;;;;;;;9.92;79.09;96464.50;5074205;28;19958;-85
2021/09/18 02:05:20;;;;;;;;;;;;;;;9.92;79.00;96464.50;5074085;28;19956;-85
2021/09/18 02:07:46;;;;;;;;;;;;;;;9.92;78.90;96464.50;5073923;28;19952;-85
2021/09/18 02:10:16;;;;;;;;;;;;;;;9.91;78.97;96472.56;5073979;28;19957;-85
2021/09/18 02:12:42;;;;;;;;;;;;;;;9.90;78.80;96466.53;5073922;28;19958;-85
2021/09/18 02:15:08;;;;;;;;;;;;;;;9.88;78.93;96471.19;5073675;28;19955;-85
2021/09/18 02:17:34;;;;;;;;;;;;;;;9.87;79.22;96464.38;5074368;28;19958;-85
2021/09/18 02:20:00;;;;;;;;;;;;;;;9.85;78.96;96463.78;5073949;28;20002;-85
2021/09/18 02:22:26;;;;;;;;;;;;;;;9.83;79.15;96468.41;5073953;28;19957;-85
2021/09/18 02:24:52;;;;;;;;;;;;;;;9.81;79.23;96475.69;5074171;28;19953;-85
2021/09/18 02:27:18;;;;;;;;;;;;;;;9.78;78.87;96470.06;5073610;28;19975;-85
2021/09/18 02:29:43;;;;;;;;;;;;;;;9.72;79.31;96467.28;5073550;28;20419;-85
2021/09/18 02:32:10;;;;;;;;;;;;;;;9.69;79.69;96466.91;5073942;28;19992;-85
2021/09/18 02:34:36;;;;;;;;;;;;;;;9.66;79.40;96468.13;5073365;28;20455;-85
2021/09/18 02:37:02;;;;;;;;;;;;;;;9.64;79.58;96467.53;5073749;28;19953;-85
2021/09/18 02:39:28;;;;;;;;;;;;;;;9.62;79.73;96468.75;5062968;28;19954;-85
2021/09/18 02:41:54;;;;;;;;;;;;;;;9.59;79.52;96467.34;5073471;28;19969;-84
2021/09/18 02:44:19;;;;;;;;;;;;;;;9.58;79.58;96464.97;5073807;28;19959;-84
2021/09/18 02:46:45;;;;;;;;;;;;;;;9.55;79.58;96464.38;5073432;28;19991;-85
2021/09/18 02:49:11;;;;;;;;;;;;;;;9.52;79.72;96467.41;5073547;28;19953;-85
2021/09/18 02:51:37;;;;;;;;;;;;;;;9.51;79.44;96472.84;5073625;28;20456;-84
2021/09/18 02:54:03;;;;;;;;;;;;;;;9.49;79.05;96470.44;5073584;28;19962;-85
2021/09/18 02:56:29;;;;;;;;;;;;;;;9.49;78.83;96472.25;5073356;28;19963;-84
2021/09/18 02:58:55;;;;;;;;;;;;;;;9.48;78.79;96465.41;5073567;28;19999;-85
2021/09/18 03:01:21;;;;;;;;;;;;;;;9.48;78.62;96468.03;5073557;28;20018;-85
2021/09/18 03:03:47;;;;;;;;;;;;;;;9.46;78.86;96464.81;5073406;28;20007;-85
2021/09/18 03:06:13;;;;;;;;;;;;;;;9.44;79.23;96456.38;5073509;28;20420;-85
2021/09/18 03:08:39;;;;;;;;;;;;;;;9.41;78.98;96454.97;5073331;28;20427;-85
2021/09/18 03:11:05;;;;;;;;;;;;;;;9.40;79.18;96455.97;5073184;28;20054;-85
2021/09/18 03:13:31;;;;;;;;;;;;;;;9.39;79.20;96456.22;5073364;28;19955;-85
2021/09/18 03:15:57;;;;;;;;;;;;;;;9.37;78.90;96459.03;5073344;28;20093;-85
2021/09/18 03:18:23;;;;;;;;;;;;;;;9.37;79.15;96458.25;5073518;28;20003;-85
2021/09/18 03:20:48;;;;;;;;;;;;;;;9.34;79.30;96452.41;5073223;28;19990;-85
2021/09/18 03:23:14;;;;;;;;;;;;;;;9.33;79.30;96457.84;5073422;28;19956;-85
2021/09/18 03:25:43;;;;;;;;;;;;;;;9.29;79.27;96449.59;5073199;28;20020;-84
2021/09/18 03:28:09;;;;;;;;;;;;;;;9.29;78.90;96457.44;5072902;28;20032;-84
2021/09/18 03:30:35;;;;;;;;;;;;;;;9.27;79.14;96459.47;5073134;28;20622;-84
2021/09/18 03:33:01;;;;;;;;;;;;;;;9.25;79.55;96460.69;5073532;28;19954;-84
2021/09/18 03:35:28;;;;;;;;;;;;;;;9.23;79.23;96463.53;5072935;28;19991;-84
2021/09/18 03:37:54;;;;;;;;;;;;;;;9.21;78.70;96454.28;5073424;28;19982;-85
2021/09/18 03:40:20;;;;;;;;;;;;;;;9.20;78.71;96460.50;5072955;28;19957;-84
2021/09/18 03:42:46;;;;;;;;;;;;;;;9.20;79.19;96457.88;5073351;28;20057;-85
2021/09/18 03:45:12;;;;;;;;;;;;;;;9.17;79.58;96456.50;5073203;28;20009;-84
2021/09/18 03:47:39;;;;;;;;;;;;;;;9.15;79.42;96458.53;5073396;28;19961;-84
2021/09/18 03:50:05;;;;;;;;;;;;;;;9.13;79.42;96448.28;5072828;28;19956;-84
2021/09/18 03:52:31;;;;;;;;;;;;;;;9.12;79.56;96449.28;5073072;28;19952;-84
2021/09/18 03:54:57;;;;;;;;;;;;;;;9.11;79.55;96446.88;5072825;28;20386;-84
2021/09/18 03:57:24;;;;;;;;;;;;;;;9.11;79.47;96444.25;5073167;28;19990;-84
2021/09/18 03:59:49;;;;;;;;;;;;;;;9.08;79.33;96445.47;5074655;28;19963;-84
2021/09/18 04:02:15;;;;;;;;;;;;;;;9.08;79.33;96457.75;5076627;28;19973;-84
2021/09/18 04:04:41;;;;;;;;;;;;;;;9.06;79.76;96452.72;5076275;28;20403;-84
2021/09/18 04:07:07;;;;;;;;;;;;;;;9.05;79.79;96447.69;5076309;28;20366;-84
2021/09/18 04:09:33;;;;;;;;;;;;;;;9.04;79.55;96446.91;5076374;28;20003;-84
2021/09/18 04:11:59;;;;;;;;;;;;;;;9.02;79.74;96446.31;5076266;28;20051;-84
2021/09/18 04:14:24;;;;;;;;;;;;;;;9.01;79.28;96447.31;5075956;28;19985;-84
2021/09/18 04:16:50;;;;;;;;;;;;;;;8.99;78.92;96457.19;5076361;28;20009;-84
2021/09/18 04:19:17;;;;;;;;;;;;;;;8.96;79.29;96452.34;5075943;28;20174;-84
2021/09/18 04:21:43;;;;;;;;;;;;;;;8.94;80.29;96455.19;5075840;28;19950;-84
2021/09/18 04:24:09;;;;;;;;;;;;;;;8.92;80.22;96451.16;5076084;28;19966;-84
2021/09/18 04:26:37;;;;;;;;;;;;;;;8.91;80.59;96453.00;5076169;28;19960;-84
2021/09/18 04:29:03;;;;;;;;;;;;;;;8.89;80.76;96454.22;5075902;28;19953;-83
2021/09/18 04:31:30;;;;;;;;;;;;;;;8.86;80.42;96458.03;5076218;28;19953;-83
2021/09/18 04:33:56;;;;;;;;;;;;;;;8.85;80.29;96459.03;5075876;28;19980;-84
2021/09/18 04:36:22;;;;;;;;;;;;;;;8.85;79.83;96461.66;5075878;28;20413;-83
2021/09/18 04:38:48;;;;;;;;;;;;;;;8.83;79.65;96466.28;5075655;28;19968;-84
2021/09/18 04:41:14;;;;;;;;;;;;;;;8.84;79.87;96464.47;5075802;28;19966;-84
2021/09/18 04:43:40;;;;;;;;;;;;;;;8.85;79.62;96468.69;5075604;28;19963;-84
2021/09/18 04:46:06;;;;;;;;;;;;;;;8.84;79.34;96472.31;5075522;28;19957;-84
2021/09/18 04:48:32;;;;;;;;;;;;;;;8.84;79.03;96469.69;5075888;28;20023;-84
2021/09/18 04:50:58;;;;;;;;;;;;;;;8.82;79.37;96475.16;5075470;28;19966;-84
2021/09/18 04:53:26;;;;;;;;;;;;;;;8.81;79.41;96481.38;5075216;28;20398;-84
2021/09/18 04:55:52;;;;;;;;;;;;;;;8.79;79.51;96475.56;5076071;28;19956;-84
2021/09/18 04:58:18;;;;;;;;;;;;;;;8.78;79.47;96483.59;5075508;28;19951;-84
2021/09/18 05:00:44;;;;;;;;;;;;;;;8.76;79.22;96478.59;5075310;28;19972;-84
2021/09/18 05:03:10;;;;;;;;;;;;;;;8.76;79.75;96489.06;5075282;28;20041;-84
2021/09/18 05:05:37;;;;;;;;;;;;;;;8.74;80.34;96491.06;5075137;28;19955;-84
2021/09/18 05:08:04;;;;;;;;;;;;;;;8.73;80.16;96487.66;5074880;28;20456;-84
2021/09/18 05:10:30;;;;;;;;;;;;;;;8.72;79.82;96487.84;5075530;28;20320;-85
2021/09/18 05:12:56;;;;;;;;;;;;;;;8.71;79.75;96491.47;5075187;28;20431;-84
2021/09/18 05:15:22;;;;;;;;;;;;;;;8.70;80.95;96493.28;5073706;28;19954;-85
2021/09/18 05:17:48;;;;;;;;;;;;;;;8.69;80.82;96496.91;5075226;28;19968;-85
2021/09/18 05:20:14;;;;;;;;;;;;;;;8.71;81.26;96504.53;5073683;28;20301;-84
2021/09/18 05:22:40;;;;;;;;;;;;;;;8.71;81.38;96492.28;5074785;28;19984;-84
2021/09/18 05:25:06;;;;;;;;;;;;;;;8.72;81.34;96488.66;5075014;28;19958;-84
2021/09/18 05:27:32;;;;;;;;;;;;;;;8.73;81.23;96494.66;5075094;28;20302;-84
2021/09/18 05:29:58;;;;;;;;;;;;;;;8.72;81.13;96493.06;5073452;28;20025;-83
2021/09/18 05:32:24;;;;;;;;;;;;;;;8.70;81.44;96493.28;5075638;28;19955;-84
2021/09/18 05:34:50;;;;;;;;;;;;;;;8.72;81.45;96496.50;5074590;28;19978;-84
2021/09/18 05:37:16;;;;;;;;;;;;;;;8.74;81.70;96491.06;5073252;28;19995;-84
2021/09/18 05:39:41;;;;;;;;;;;;;;;8.78;81.61;96491.44;5074537;28;19950;-84
2021/09/18 05:42:08;;;;;;;;;;;;;;;8.85;81.31;96494.84;5075041;28;20440;-84
2021/09/18 05:44:34;;;;;;;;;;;;;;;8.92;81.32;96493.00;5074297;28;19948;-84
2021/09/18 05:47:00;;;;;;;;;;;;;;;9.00;81.48;96495.41;5074618;28;19954;-84
2021/09/18 05:49:26;;;;;;;;;;;;;;;9.13;81.63;96494.56;5074084;28;20047;-83
2021/09/18 05:51:52;;;;;;;;;;;;;;;9.36;81.30;96491.44;5074603;28;20017;-84
2021/09/18 05:54:18;;;;;;;;;;;;;;;9.76;80.45;96485.97;5073763;28;19955;-84
2021/09/18 05:56:43;;;;;;;;;;;;;;;10.29;79.22;96488.25;5073991;28;19953;-83
2021/09/18 05:59:09;;;;;;;;;;;;;;;10.85;77.37;96489.13;5074351;28;19959;-83
2021/09/18 06:01:35;;;;;;;;;;;;;;;11.32;75.99;96499.09;5073889;28;19976;-83
2021/09/18 06:04:01;;;;;;;;;;;;;;;11.76;74.73;96497.13;5074078;28;20021;-83
2021/09/18 06:06:27;;;;;;;;;;;;;;;12.17;73.73;96492.88;5073958;28;19954;-83
2021/09/18 06:08:53;;;;;;;;;;;;;;;12.52;72.72;96484.22;5073976;28;20385;-83
2021/09/18 06:11:19;;;;;;;;;;;;;;;12.84;71.47;96487.28;5074077;28;20348;-83
2021/09/18 06:13:45;;;;;;;;;;;;;;;13.09;70.55;96494.91;5073873;28;20050;-83
2021/09/18 06:16:11;;;;;;;;;;;;;;;13.22;70.08;96487.78;5074340;28;20018;-83
2021/09/18 06:18:36;;;;;;;;;;;;;;;13.32;69.67;96495.94;5073847;28;20020;-83
2021/09/18 06:21:04;;;;;;;;;;;;;;;13.38;69.29;96495.00;5073760;28;20052;-83
2021/09/18 06:23:30;;;;;;;;;;;;;;;13.38;68.83;96492.38;5073254;28;19953;-83
2021/09/18 06:25:56;;;;;;;;;;;;;;;13.36;68.30;96492.59;5073828;28;19948;-83
2021/09/18 06:28:22;;;;;;;;;;;;;;;13.43;68.96;96496.91;5073721;28;20428;-83
2021/09/18 06:30:48;;;;;;;;;;;;;;;13.44;67.74;96491.44;5074137;28;19957;-82
2021/09/18 06:33:14;;;;;;;;;;;;;;;13.38;68.39;96502.91;5073611;28;20020;-82
2021/09/18 06:35:40;;;;;;;;;;;;;;;13.40;68.33;96506.91;5073705;28;19976;-83
2021/09/18 06:38:06;;;;;;;;;;;;;;;13.48;68.52;96507.53;5073771;28;20039;-83
2021/09/18 06:40:32;;;;;;;;;;;;;;;13.55;68.66;96511.66;5072388;28;20045;-83
2021/09/18 06:42:58;;;;;;;;;;;;;;;13.56;68.02;96507.19;5073896;28;20018;-82
2021/09/18 06:45:23;;;;;;;;;;;;;;;13.40;67.55;96508.72;5073691;28;20006;-82
2021/09/18 06:47:49;;;;;;;;;;;;;;;13.27;68.56;96515.03;5072014;28;20061;-82
2021/09/18 06:50:15;;;;;;;;;;;;;;;13.18;69.01;96511.16;5073845;28;20336;-82
2021/09/18 06:52:41;;;;;;;;;;;;;;;13.06;69.55;96519.09;5073481;28;19948;-82
2021/09/18 06:55:07;;;;;;;;;;;;;;;12.91;69.83;96519.53;5073436;28;19956;-82
2021/09/18 06:57:35;;;;;;;;;;;;;;;12.92;70.01;96520.38;5073505;28;19953;-82
2021/09/18 07:00:02;;;;;;;;;;;;;;;12.96;70.71;96527.56;5073476;28;19962;-82
2021/09/18 07:02:28;;;;;;;;;;;;;;;13.13;71.16;96527.66;5073584;28;19965;-82
2021/09/18 07:04:53;;;;;;;;;;;;;;;13.35;70.96;96522.59;5073383;28;20519;-82
2021/09/18 07:07:19;;;;;;;;;;;;;;;13.56;69.84;96525.63;5073584;28;19995;-82
2021/09/18 07:09:45;;;;;;;;;;;;;;;13.55;69.24;96519.56;5073482;28;20001;-82
2021/09/18 07:12:11;;;;;;;;;;;;;;;13.66;69.52;96519.75;5073535;28;19956;-82
2021/09/18 07:14:37;;;;;;;;;;;;;;;13.78;67.90;96509.97;5071988;28;19957;-82
2021/09/18 07:17:03;;;;;;;;;;;;;;;13.75;68.43;96505.16;5073111;28;19980;-82
2021/09/18 07:19:29;;;;;;;;;;;;;;;13.71;69.32;96518.03;5073589;28;19961;-82
2021/09/18 07:21:55;;;;;;;;;;;;;;;13.79;68.84;96511.56;5073323;28;19979;-82
2021/09/18 07:24:21;;;;;;;;;;;;;;;13.88;68.73;96509.31;5073234;28;19955;-82
2021/09/18 07:26:47;;;;;;;;;;;;;;;14.01;70.30;96525.66;5073230;28;20352;-82
2021/09/18 07:29:13;;;;;;;;;;;;;;;14.20;69.52;96520.16;5073287;28;19963;-82
2021/09/18 07:31:38;;;;;;;;;;;;;;;14.48;69.29;96513.22;5073067;28;19995;-82
2021/09/18 07:34:04;;;;;;;;;;;;;;;14.69;68.07;96514.34;5074172;28;20370;-82
2021/09/18 07:36:30;;;;;;;;;;;;;;;14.85;67.83;96518.81;5076956;28;19967;-82
2021/09/18 07:38:56;;;;;;;;;;;;;;;15.03;66.66;96517.72;5077182;28;19967;-82
2021/09/18 07:41:22;;;;;;;;;;;;;;;15.16;66.75;96516.56;5076908;28;19967;-82
2021/09/18 07:43:48;;;;;;;;;;;;;;;15.17;67.21;96515.53;5076869;28;20418;-82
2021/09/18 07:46:14;;;;;;;;;;;;;;;15.18;67.22;96517.09;5076675;28;19949;-82
2021/09/18 07:48:40;;;;;;;;;;;;;;;15.28;66.68;96514.59;5076683;28;19962;-82
2021/09/18 07:51:06;;;;;;;;;;;;;;;15.42;66.31;96513.19;5076888;28;20000;-83
2021/09/18 07:53:32;;;;;;;;;;;;;;;15.53;67.43;96519.38;5076858;28;19963;-82
2021/09/18 07:55:58;;;;;;;;;;;;;;;15.56;65.46;96507.50;5076687;28;20019;-83
2021/09/18 07:58:23;;;;;;;;;;;;;;;15.59;66.73;96512.31;5076575;28;19990;-83
2021/09/18 08:00:49;;;;;;;;;;;;;;;15.63;65.90;96513.41;5076249;28;19967;-83
2021/09/18 08:03:15;;;;;;;;;;;;;;;15.65;65.35;96507.91;5077228;28;19971;-83
2021/09/18 08:05:41;;;;;;;;;;;;;;;15.71;65.91;96512.97;5076487;28;19994;-83
2021/09/18 08:08:07;;;;;;;;;;;;;;;15.70;65.55;96519.28;5076531;28;19969;-83
2021/09/18 08:10:34;;;;;;;;;;;;;;;15.85;65.79;96520.53;5076313;28;19962;-83
2021/09/18 08:13:00;;;;;;;;;;;;;;;15.95;65.48;96518.78;5076302;28;19964;-83
2021/09/18 08:15:26;;;;;;;;;;;;;;;15.97;65.77;96521.19;5076053;28;20352;-83
2021/09/18 08:17:52;;;;;;;;;;;;;;;16.06;65.51;96517.03;5076297;28;19955;-83
2021/09/18 08:20:19;;;;;;;;;;;;;;;16.10;65.08;96506.75;5076276;28;20417;-83
2021/09/18 08:22:46;;;;;;;;;;;;;;;16.10;65.05;96514.69;5076174;28;19978;-83
2021/09/18 08:25:12;;;;;;;;;;;;;;;16.18;65.52;96517.69;5075930;28;19953;-83
2021/09/18 08:27:38;;;;;;;;;;;;;;;16.35;65.29;96511.47;5076071;28;19960;-83
2021/09/18 08:30:07;;;;;;;;;;;;;;;16.43;65.16;96509.16;5075910;28;20301;-83
2021/09/18 08:32:33;;;;;;;;;;;;;;;16.47;65.46;96520.03;5075796;28;20331;-83
2021/09/18 08:34:59;;;;;;;;;;;;;;;16.60;64.99;96514.28;5075767;28;19991;-83
2021/09/18 08:37:25;;;;;;;;;;;;;;;16.70;64.29;96508.28;5075899;28;19984;-83
2021/09/18 08:39:51;;;;;;;;;;;;;;;16.82;65.01;96514.22;5075846;28;19998;-83
2021/09/18 08:42:17;;;;;;;;;;;;;;;16.86;62.99;96500.44;5075765;28;20352;-83
2021/09/18 08:44:43;;;;;;;;;;;;;;;16.90;62.89;96501.53;5075024;28;20426;-83
2021/09/18 08:47:11;;;;;;;;;;;;;;;16.87;64.24;96508.16;5075498;28;19960;-83
2021/09/18 08:49:37;;;;;;;;;;;;;;;16.77;61.49;96489.50;5075971;28;20354;-83
2021/09/18 08:52:03;;;;;;;;;;;;;;;16.66;62.52;96490.50;5075715;28;19956;-83
2021/09/18 08:54:29;;;;;;;;;;;;;;;16.62;62.88;96504.25;5075536;28;20408;-83
2021/09/18 08:56:55;;;;;;;;;;;;;;;16.69;63.90;96513.81;5075290;28;19953;-83
2021/09/18 08:59:21;;;;;;;;;;;;;;;16.74;63.11;96505.94;5075401;28;19989;-83
2021/09/18 09:02:06;;;;;;;;;;;;;;;16.73;63.69;96518.34;5075318;28;20475;-83
2021/09/18 09:04:32;;;;;;;;;;;;;;;16.80;64.72;96515.50;5075541;28;19965;-83
2021/09/18 09:07:02;;;;;;;;;;;;;;;16.90;64.56;96507.63;5075357;28;19967;-82
2021/09/18 09:09:47;;;;;;;;;;;;;;;17.00;64.41;96510.31;5075410;28;20318;-82
2021/09/18 09:12:23;;;;;;;;;;;;;;;17.04;64.07;96505.31;5075391;28;19957;-83
2021/09/18 09:14:49;;;;;;;;;;;;;;;16.98;63.29;96493.88;5073868;28;19956;-82
2021/09/18 09:17:21;;;;;;;;;;;;;;;16.97;64.37;96510.06;5075109;28;19963;-83
2021/09/18 09:19:51;;;;;;;;;;;;;;;17.00;64.06;96504.25;5075117;28;19958;-83
2021/09/18 09:22:36;;;;;;;;;;;;;;;17.04;63.01;96492.88;5073883;28;19977;-82
2021/09/18 09:25:03;;;;;;;;;;;;;;;17.11;63.99;96502.44;5074798;28;20400;-82
2021/09/18 09:27:29;;;;;;;;;;;;;;;17.10;63.53;96493.69;5074860;28;20038;-82
2021/09/18 09:29:57;;;;;;;;;;;;;;;17.13;64.78;96503.75;5074779;28;20344;-82
2021/09/18 09:32:33;;;;;;;;;;;;;;;17.12;63.56;96478.34;5074785;28;19957;-82
2021/09/18 09:35:01;;;;;;;;;;;;;;;17.14;64.37;96496.63;5060951;28;19986;-82
2021/09/18 09:37:27;;;;;;;;;;;;;;;17.15;63.43;96484.97;5075043;28;20442;-82
2021/09/18 09:39:55;;;;;;;;;;;;;;;17.18;63.71;96485.25;5074569;28;19961;-82
2021/09/18 09:42:28;;;;;;;;;;;;;;;17.21;64.02;96487.38;5074561;28;20356;-82
2021/09/18 09:45:08;;;;;;;;;;;;;;;17.22;63.03;96481.03;5074311;28;19956;-82
2021/09/18 09:47:34;;;;;;;;;;;;;;;17.28;63.26;96481.03;5074699;28;19953;-82
2021/09/18 09:49:59;;;;;;;;;;;;;;;17.38;63.76;96489.03;5074540;28;19965;-82
2021/09/18 09:52:28;;;;;;;;;;;;;;;17.49;63.93;96485.38;5074458;28;20051;-82
2021/09/18 09:55:05;;;;;;;;;;;;;;;17.60;64.13;96489.63;5074391;28;19954;-82
2021/09/18 09:57:31;;;;;;;;;;;;;;;17.66;62.84;96474.53;5073642;28;19952;-82
2021/09/18 10:00:03;;;;;;;;;;;;;;;17.71;62.46;96477.19;5074663;28;19965;-82
2021/09/18 10:02:30;;;;;;;;;;;;;;;17.71;61.07;96453.31;5062324;28;19975;-82
2021/09/18 10:04:56;;;;;;;;;;;;;;;17.72;59.63;96446.16;5074318;28;19964;-82
2021/09/18 10:07:22;;;;;;;;;;;;;;;17.74;61.96;96468.69;5074180;28;19957;-82
2021/09/18 10:09:49;;;;;;;;;;;;;;;17.83;64.41;96485.72;5073926;28;19959;-82
2021/09/18 10:12:15;;;;;;;;;;;;;;;17.95;63.08;96476.72;5073841;28;19959;-81
2021/09/18 10:14:45;;;;;;;;;;;;;;;18.05;63.14;96474.88;5074201;28;19952;-82
2021/09/18 10:17:11;;;;;;;;;;;;;;;18.11;60.98;96454.44;5074142;28;19955;-81
2021/09/18 10:25:19;;;;;;;;;;;;;;;18.26;60.77;96462.38;5074069;28;20331;-81
2021/09/18 10:28:10;;;;;;;;;;;;;;;18.38;62.22;96467.44;5073674;28;19979;-81
2021/09/18 10:30:47;;;;;;;;;;;;;;;18.53;58.53;96428.66;5073779;28;19949;-82
2021/09/18 10:33:28;;;;;;;;;;;;;;;18.67;59.38;96432.34;5073872;28;19953;-81
2021/09/18 10:35:55;;;;;;;;;;;;;;;18.81;61.67;96454.63;5074003;28;19969;-81
2021/09/18 10:38:23;;;;;;;;;;;;;;;18.97;60.20;96439.44;5073691;28;20426;-81
2021/09/18 10:40:53;;;;;;;;;;;;;;;19.14;60.09;96433.78;5072248;28;19963;-81
2021/09/18 10:43:27;;;;;;;;;;;;;;;19.32;59.75;96432.38;5072468;28;19976;-81
2021/09/18 10:45:53;;;;;;;;;;;;;;;19.50;58.43;96416.84;5074027;28;19960;-81
2021/09/18 10:48:39;;;;;;;;;;;;;;;19.64;59.64;96428.47;5073719;28;19952;-81
2021/09/18 10:51:06;;;;;;;;;;;;;;;19.83;60.00;96429.44;5073688;28;19965;-81
2021/09/18 10:54:04;;;;;;;;;;;;;;;20.02;59.05;96426.09;5132177;27;20006;-81
2021/09/18 10:56:54;;;;;;;;;;;;;;;20.16;57.08;96397.75;5091341;28;20333;-81
2021/09/18 10:59:46;;;;;;;;;;;;;;;20.34;57.74;96411.44;5091333;28;19967;-81
2021/09/18 11:02:30;;;;;;;;;;;;;;;20.52;55.88;96396.63;5091681;28;19968;-81
2021/09/18 11:05:09;;;;;;;;;;;;;;;20.65;51.99;96345.34;5112187;27;19961;-81
2021/09/18 11:07:47;;;;;;;;;;;;;;;20.76;54.44;96380.66;5125773;27;19994;-81
2021/09/18 11:10:24;;;;;;;;;;;;;;;20.87;55.46;96379.44;5131068;27;20003;-81
2021/09/18 11:13:22;;;;;;;;;;;;;;;20.96;50.40;96340.44;5091908;28;19962;-81
2021/09/18 11:16:04;;;;;;;;;;;;;;;20.84;51.02;96390.69;5091652;28;19967;-81
2021/09/18 11:18:42;;;;;;;;;;;;;;;20.58;45.37;96375.00;5091130;28;19970;-81
2021/09/18 11:21:20;;;;;;;;;;;;;;;20.17;47.22;96427.84;5130504;27;20009;-81
2021/09/18 11:24:00;;;;;;;;;;;;;;;20.08;52.25;96451.59;5091449;28;19969;-81
2021/09/18 11:26:42;;;;;;;;;;;;;;;20.22;51.55;96441.91;5132132;27;20438;-81
2021/09/18 11:29:18;;;;;;;;;;;;;;;20.18;50.04;96426.75;5091288;27;19959;-81
2021/09/18 11:32:02;;;;;;;;;;;;;;;20.17;46.85;96401.22;5111634;27;19970;-81
2021/09/18 11:34:39;;;;;;;;;;;;;;;20.25;48.91;96429.91;5132070;27;20419;-81
2021/09/18 11:37:23;;;;;;;;;;;;;;;20.38;49.49;96431.13;5091505;28;19972;-81
2021/09/18 11:40:06;;;;;;;;;;;;;;;20.42;44.39;96400.97;5091117;28;20398;-81
2021/09/18 11:42:44;;;;;;;;;;;;;;;20.52;45.63;96412.59;5127992;27;20025;-81
2021/09/18 11:45:23;;;;;;;;;;;;;;;20.70;44.87;96406.56;5126217;27;20020;-81
2021/09/18 11:48:01;;;;;;;;;;;;;;;20.74;49.32;96444.09;5091051;28;19964;-81
2021/09/18 11:50:39;;;;;;;;;;;;;;;20.77;42.10;96391.03;5091267;28;19971;-81
2021/09/18 11:53:17;;;;;;;;;;;;;;;20.77;42.27;96396.38;5112019;27;20426;-81
2021/09/18 11:55:56;;;;;;;;;;;;;;;20.83;46.48;96421.88;5130678;27;20025;-81
2021/09/18 11:58:33;;;;;;;;;;;;;;;21.06;48.37;96430.94;5131524;27;20016;-81
2021/09/18 12:01:10;;;;;;;;;;;;;;;21.25;49.10;96422.97;5091813;28;19987;-81
2021/09/18 12:03:49;;;;;;;;;;;;;;;21.34;47.47;96409.78;5123069;27;20010;-81
2021/09/18 12:06:29;;;;;;;;;;;;;;;21.37;44.58;96393.19;5123065;27;20013;-81
2021/09/18 12:09:07;;;;;;;;;;;;;;;21.39;45.75;96404.38;5091319;28;19971;-81
2021/09/18 12:11:44;;;;;;;;;;;;;;;21.39;47.17;96412.38;5091700;28;19972;-81
2021/09/18 12:14:28;;;;;;;;;;;;;;;21.46;44.93;96393.34;5061938;27;1968121;-81
2021/09/18 12:17:15;;;;;;;;;;;;;;;21.53;44.21;96377.00;5131968;27;20036;-80
2021/09/18 12:19:53;;;;;;;;;;;;;;;21.53;46.03;96396.47;5131107;27;20380;-81
2021/09/18 12:22:31;;;;;;;;;;;;;;;21.54;45.54;96407.94;5091268;28;20336;-81
2021/09/18 12:25:10;;;;;;;;;;;;;;;21.69;46.39;96408.53;5091360;28;19973;-81
2021/09/18 12:27:53;;;;;;;;;;;;;;;21.76;39.12;96362.78;5091658;28;19959;-76
2021/09/18 12:30:38;;;;;;;;;;;;;;;21.75;43.86;96411.88;5111983;27;20340;-81
2021/09/18 12:33:18;;;;;;;;;;;;;;;21.52;40.20;96378.09;5091536;28;20322;-81
2021/09/18 12:36:07;;;;;;;;;;;;;;;21.36;41.23;96391.63;5124720;27;20011;-81
2021/09/18 12:38:46;;;;;;;;;;;;;;;21.43;42.25;96393.94;5111974;27;19963;-81
2021/09/18 12:41:30;;;;;;;;;;;;;;;21.28;38.58;96378.94;5128709;27;20011;-81
2021/09/18 12:44:20;;;;;;;;;;;;;;;21.37;42.17;96405.75;5131956;27;20007;-81
2021/09/18 12:46:57;;;;;;;;;;;;;;;21.62;42.57;96401.94;5128455;27;20423;-81
2021/09/18 12:49:37;;;;;;;;;;;;;;;21.76;42.04;96394.81;5129269;27;20009;-80
2021/09/18 12:52:31;;;;;;;;;;;;;;;21.84;37.07;96367.44;5063087;27;1973241;-81
2021/09/18 12:55:08;;;;;;;;;;;;;;;21.77;38.76;96385.69;5127646;27;20007;-81
2021/09/18 12:57:44;;;;;;;;;;;;;;;21.68;38.80;96384.78;5111951;27;19964;-80
2021/09/18 13:00:22;;;;;;;;;;;;;;;21.73;42.23;96415.94;5091116;28;19963;-80
2021/09/18 13:03:12;;;;;;;;;;;;;;;21.61;36.96;96374.47;5091235;28;19970;-81
2021/09/18 13:06:03;;;;;;;;;;;;;;;21.71;39.61;96389.53;5091349;28;21490;-81